sensor_id;sensor_type;location;lat;lon;timestamp;temperature;humidity
48007;DHT22;33771;48.180;11.400;2023-01-15T00:01:26;7.90;99.90
48007;DHT22;33771;48.180;11.400;2023-01-15T00:03:53;7.90;99.90
48007;DHT22;33771;48.180;11.400;2023-01-15T00:06:20;7.80;99.90
48007;DHT22;33771;48.180;11.400;2023-01-15T00:08:47;7.80;99.90
48007;DHT22;33771;48.180;11.400;2023-01-15T00:11:12;7.90;99.90
48007;DHT22;33771;48.180;11.400;2023-01-15T00:13:39;7.90;99.90
48007;DHT22;33771;48.180;11.400;2023-01-15T00:16:10;7.90;99.90
48007;DHT22;33771;48.180;11.400;2023-01-15T00:18:37;8.00;99.90
48007;DHT22;33771;48.180;11.400;2023-01-15T00:21:05;8.00;99.90
48007;DHT22;33771;48.180;11.400;2023-01-15T00:23:32;8.00;99.90
48007;DHT22;33771;48.180;11.400;2023-01-15T00:26:17;8.00;99.90
48007;DHT22;33771;48.180;11.400;2023-01-15T00:29:02;8.00;99.90
48007;DHT22;33771;48.180;11.400;2023-01-15T00:31:28;8.10;99.90
48007;DHT22;33771;48.180;11.400;2023-01-15T00:33:54;8.10;99.90
48007;DHT22;33771;48.180;11.400;2023-01-15T00:36:19;8.00;99.90
48007;DHT22;33771;48.180;11.400;2023-01-15T00:38:45;8.00;99.90
48007;DHT22;33771;48.180;11.400;2023-01-15T00:41:10;8.00;99.90
48007;DHT22;33771;48.180;11.400;2023-01-15T00:43:36;8.00;99.90
48007;DHT22;33771;48.180;11.400;2023-01-15T00:46:02;7.90;99.90
48007;DHT22;33771;48.180;11.400;2023-01-15T00:48:29;7.90;99.90
48007;DHT22;33771;48.180;11.400;2023-01-15T00:50:55;7.90;99.90
48007;DHT22;33771;48.180;11.400;2023-01-15T00:53:20;7.80;99.90
48007;DHT22;33771;48.180;11.400;2023-01-15T00:55:46;7.80;99.90
48007;DHT22;33771;48.180;11.400;2023-01-15T00:58:11;7.70;99.90
48007;DHT22;33771;48.180;11.400;2023-01-15T01:00:37;7.70;99.90
48007;DHT22;33771;48.180;11.400;2023-01-15T01:03:03;7.60;99.90
48007;DHT22;33771;48.180;11.400;2023-01-15T01:05:30;7.60;99.90
48007;DHT22;33771;48.180;11.400;2023-01-15T01:07:55;7.50;99.90
48007;DHT22;33771;48.180;11.400;2023-01-15T01:10:21;7.50;99.90
48007;DHT22;33771;48.180;11.400;2023-01-15T01:12:47;7.50;99.90
48007;DHT22;33771;48.180;11.400;2023-01-15T01:15:16;7.50;99.90
48007;DHT22;33771;48.180;11.400;2023-01-15T01:17:42;7.40;99.90
48007;DHT22;33771;48.180;11.400;2023-01-15T01:20:08;7.40;99.90
48007;DHT22;33771;48.180;11.400;2023-01-15T01:22:34;7.40;99.90
48007;DHT22;33771;48.180;11.400;2023-01-15T01:25:00;7.40;99.90
48007;DHT22;33771;48.180;11.400;2023-01-15T01:27:26;7.30;99.90
48007;DHT22;33771;48.180;11.400;2023-01-15T01:29:51;7.30;99.90
48007;DHT22;33771;48.180;11.400;2023-01-15T01:32:17;7.30;99.90
48007;DHT22;33771;48.180;11.400;2023-01-15T01:34:42;7.30;99.90
48007;DHT22;33771;48.180;11.400;2023-01-15T01:37:08;7.30;99.90
48007;DHT22;33771;48.180;11.400;2023-01-15T01:39:33;7.20;99.90
48007;DHT22;33771;48.180;11.400;2023-01-15T01:41:59;7.20;99.90
48007;DHT22;33771;48.180;11.400;2023-01-15T01:47:06;7.10;99.90
48007;DHT22;33771;48.180;11.400;2023-01-15T01:49:33;7.10;99.90
48007;DHT22;33771;48.180;11.400;2023-01-15T01:52:08;7.00;99.90
48007;DHT22;33771;48.180;11.400;2023-01-15T01:54:37;7.00;99.90
48007;DHT22;33771;48.180;11.400;2023-01-15T01:57:03;7.00;99.90
48007;DHT22;33771;48.180;11.400;2023-01-15T01:59:31;7.00;99.90
48007;DHT22;33771;48.180;11.400;2023-01-15T02:01:57;6.90;99.90
48007;DHT22;33771;48.180;11.400;2023-01-15T02:04:26;6.90;99.90
48007;DHT22;33771;48.180;11.400;2023-01-15T02:06:53;6.90;99.90
48007;DHT22;33771;48.180;11.400;2023-01-15T02:09:18;6.90;99.90
48007;DHT22;33771;48.180;11.400;2023-01-15T02:11:44;6.80;99.90
48007;DHT22;33771;48.180;11.400;2023-01-15T02:14:15;6.80;99.90
48007;DHT22;33771;48.180;11.400;2023-01-15T02:16:46;6.80;99.90
48007;DHT22;33771;48.180;11.400;2023-01-15T02:22:13;6.80;99.90
48007;DHT22;33771;48.180;11.400;2023-01-15T02:25:03;6.80;99.90
48007;DHT22;33771;48.180;11.400;2023-01-15T02:27:33;6.80;99.90
48007;DHT22;33771;48.180;11.400;2023-01-15T02:30:17;6.80;99.90
48007;DHT22;33771;48.180;11.400;2023-01-15T02:32:57;6.80;99.90
48007;DHT22;33771;48.180;11.400;2023-01-15T02:35:30;6.80;99.90
48007;DHT22;33771;48.180;11.400;2023-01-15T02:38:00;6.80;99.90
48007;DHT22;33771;48.180;11.400;2023-01-15T02:40:27;6.80;99.90
48007;DHT22;33771;48.180;11.400;2023-01-15T02:42:54;6.90;99.90
48007;DHT22;33771;48.180;11.400;2023-01-15T02:45:25;6.90;99.90
48007;DHT22;33771;48.180;11.400;2023-01-15T02:47:59;6.90;99.90
48007;DHT22;33771;48.180;11.400;2023-01-15T02:50:29;6.90;99.90
48007;DHT22;33771;48.180;11.400;2023-01-15T02:53:00;6.90;99.90
48007;DHT22;33771;48.180;11.400;2023-01-15T02:55:32;6.90;99.90
48007;DHT22;33771;48.180;11.400;2023-01-15T02:58:01;7.00;99.90
48007;DHT22;33771;48.180;11.400;2023-01-15T03:00:31;7.00;99.90
48007;DHT22;33771;48.180;11.400;2023-01-15T03:03:02;7.00;99.90
48007;DHT22;33771;48.180;11.400;2023-01-15T03:06:01;7.10;99.90
48007;DHT22;33771;48.180;11.400;2023-01-15T03:08:30;7.10;99.90
48007;DHT22;33771;48.180;11.400;2023-01-15T03:11:14;7.10;99.90
48007;DHT22;33771;48.180;11.400;2023-01-15T03:16:34;7.20;99.90
48007;DHT22;33771;48.180;11.400;2023-01-15T03:19:10;7.20;99.90
48007;DHT22;33771;48.180;11.400;2023-01-15T03:24:04;7.20;99.90
48007;DHT22;33771;48.180;11.400;2023-01-15T03:26:31;7.20;99.90
48007;DHT22;33771;48.180;11.400;2023-01-15T03:28:56;7.20;99.90
48007;DHT22;33771;48.180;11.400;2023-01-15T03:31:22;7.20;99.90
48007;DHT22;33771;48.180;11.400;2023-01-15T03:33:48;7.10;99.90
48007;DHT22;33771;48.180;11.400;2023-01-15T03:36:13;7.10;99.90
48007;DHT22;33771;48.180;11.400;2023-01-15T03:38:39;7.10;99.90
48007;DHT22;33771;48.180;11.400;2023-01-15T03:41:35;7.10;99.90
48007;DHT22;33771;48.180;11.400;2023-01-15T03:47:05;7.10;99.90
48007;DHT22;33771;48.180;11.400;2023-01-15T04:00:41;7.20;99.90
48007;DHT22;33771;48.180;11.400;2023-01-15T04:03:08;7.30;99.90
48007;DHT22;33771;48.180;11.400;2023-01-15T04:05:36;7.30;99.90
48007;DHT22;33771;48.180;11.400;2023-01-15T04:08:02;7.30;99.90
48007;DHT22;33771;48.180;11.400;2023-01-15T04:10:28;7.30;99.90
48007;DHT22;33771;48.180;11.400;2023-01-15T04:12:53;7.30;99.90
48007;DHT22;33771;48.180;11.400;2023-01-15T04:15:19;7.40;99.90
48007;DHT22;33771;48.180;11.400;2023-01-15T04:17:44;7.40;99.90
48007;DHT22;33771;48.180;11.400;2023-01-15T04:20:10;7.50;99.90
48007;DHT22;33771;48.180;11.400;2023-01-15T04:22:36;7.40;99.90
48007;DHT22;33771;48.180;11.400;2023-01-15T04:25:03;7.50;99.90
48007;DHT22;33771;48.180;11.400;2023-01-15T04:27:28;7.50;99.90
48007;DHT22;33771;48.180;11.400;2023-01-15T04:29:54;7.50;99.90
48007;DHT22;33771;48.180;11.400;2023-01-15T04:32:20;7.50;99.90
48007;DHT22;33771;48.180;11.400;2023-01-15T04:34:45;7.50;99.90
48007;DHT22;33771;48.180;11.400;2023-01-15T04:37:11;7.50;99.90
48007;DHT22;33771;48.180;11.400;2023-01-15T04:39:36;7.50;99.90
48007;DHT22;33771;48.180;11.400;2023-01-15T04:42:02;7.50;99.90
48007;DHT22;33771;48.180;11.400;2023-01-15T04:44:46;7.50;99.90
48007;DHT22;33771;48.180;11.400;2023-01-15T04:47:12;7.40;99.90
48007;DHT22;33771;48.180;11.400;2023-01-15T04:49:37;7.50;99.90
48007;DHT22;33771;48.180;11.400;2023-01-15T04:52:03;7.40;99.90
48007;DHT22;33771;48.180;11.400;2023-01-15T04:54:28;7.40;99.90
48007;DHT22;33771;48.180;11.400;2023-01-15T04:56:54;7.40;99.90
48007;DHT22;33771;48.180;11.400;2023-01-15T04:59:22;7.40;99.90
48007;DHT22;33771;48.180;11.400;2023-01-15T05:01:48;7.40;99.90
48007;DHT22;33771;48.180;11.400;2023-01-15T05:04:14;7.40;99.90
48007;DHT22;33771;48.180;11.400;2023-01-15T05:06:39;7.50;99.90
48007;DHT22;33771;48.180;11.400;2023-01-15T05:09:05;7.40;99.90
48007;DHT22;33771;48.180;11.400;2023-01-15T05:11:34;7.40;99.90
48007;DHT22;33771;48.180;11.400;2023-01-15T05:14:00;7.40;99.90
48007;DHT22;33771;48.180;11.400;2023-01-15T05:16:26;7.40;99.90
48007;DHT22;33771;48.180;11.400;2023-01-15T05:18:55;7.40;99.90
48007;DHT22;33771;48.180;11.400;2023-01-15T05:21:26;7.40;99.90
48007;DHT22;33771;48.180;11.400;2023-01-15T05:23:54;7.30;99.90
48007;DHT22;33771;48.180;11.400;2023-01-15T05:26:21;7.30;99.90
48007;DHT22;33771;48.180;11.400;2023-01-15T05:28:48;7.30;99.90
48007;DHT22;33771;48.180;11.400;2023-01-15T05:31:16;7.30;99.90
48007;DHT22;33771;48.180;11.400;2023-01-15T05:33:43;7.30;99.90
48007;DHT22;33771;48.180;11.400;2023-01-15T05:36:11;7.30;99.90
48007;DHT22;33771;48.180;11.400;2023-01-15T05:38:37;7.50;99.90
48007;DHT22;33771;48.180;11.400;2023-01-15T05:41:07;7.70;99.90
48007;DHT22;33771;48.180;11.400;2023-01-15T05:43:55;8.40;99.90
48007;DHT22;33771;48.180;11.400;2023-01-15T05:46:21;9.00;99.90
48007;DHT22;33771;48.180;11.400;2023-01-15T05:48:46;9.40;99.90
48007;DHT22;33771;48.180;11.400;2023-01-15T05:51:12;9.90;99.90
48007;DHT22;33771;48.180;11.400;2023-01-15T05:53:37;10.20;99.90
48007;DHT22;33771;48.180;11.400;2023-01-15T05:56:04;10.40;99.90
48007;DHT22;33771;48.180;11.400;2023-01-15T05:58:30;10.50;99.90
48007;DHT22;33771;48.180;11.400;2023-01-15T06:00:56;10.50;99.90
48007;DHT22;33771;48.180;11.400;2023-01-15T06:03:23;10.70;99.90
48007;DHT22;33771;48.180;11.400;2023-01-15T06:05:50;10.80;99.90
48007;DHT22;33771;48.180;11.400;2023-01-15T06:08:16;10.80;99.90
48007;DHT22;33771;48.180;11.400;2023-01-15T06:10:44;10.90;99.90
48007;DHT22;33771;48.180;11.400;2023-01-15T06:13:09;11.00;99.90
48007;DHT22;33771;48.180;11.400;2023-01-15T06:15:38;11.00;99.90
48007;DHT22;33771;48.180;11.400;2023-01-15T06:18:04;11.00;99.90
48007;DHT22;33771;48.180;11.400;2023-01-15T06:20:29;11.10;99.90
48007;DHT22;33771;48.180;11.400;2023-01-15T06:22:55;11.10;99.90
48007;DHT22;33771;48.180;11.400;2023-01-15T06:25:21;11.10;99.90
48007;DHT22;33771;48.180;11.400;2023-01-15T06:27:46;11.10;99.90
48007;DHT22;33771;48.180;11.400;2023-01-15T06:30:14;11.10;99.90
48007;DHT22;33771;48.180;11.400;2023-01-15T06:32:39;11.10;99.90
48007;DHT22;33771;48.180;11.400;2023-01-15T06:35:05;11.10;99.90
48007;DHT22;33771;48.180;11.400;2023-01-15T06:37:31;11.10;99.90
48007;DHT22;33771;48.180;11.400;2023-01-15T06:39:56;11.10;99.90
48007;DHT22;33771;48.180;11.400;2023-01-15T06:42:22;11.10;99.90
48007;DHT22;33771;48.180;11.400;2023-01-15T06:45:09;11.10;99.90
48007;DHT22;33771;48.180;11.400;2023-01-15T06:47:53;11.10;99.90
48007;DHT22;33771;48.180;11.400;2023-01-15T06:50:18;11.10;99.90
48007;DHT22;33771;48.180;11.400;2023-01-15T06:52:44;11.10;99.90
48007;DHT22;33771;48.180;11.400;2023-01-15T06:55:09;11.20;99.90
48007;DHT22;33771;48.180;11.400;2023-01-15T06:57:38;11.10;99.90
48007;DHT22;33771;48.180;11.400;2023-01-15T07:00:05;11.10;99.90
48007;DHT22;33771;48.180;11.400;2023-01-15T07:02:31;11.20;99.90
48007;DHT22;33771;48.180;11.400;2023-01-15T07:04:56;11.20;99.90
48007;DHT22;33771;48.180;11.400;2023-01-15T07:07:22;11.30;99.90
48007;DHT22;33771;48.180;11.400;2023-01-15T07:09:48;11.30;99.90
48007;DHT22;33771;48.180;11.400;2023-01-15T07:12:14;11.30;99.90
48007;DHT22;33771;48.180;11.400;2023-01-15T07:14:39;11.30;99.90
48007;DHT22;33771;48.180;11.400;2023-01-15T07:17:05;11.30;99.90
48007;DHT22;33771;48.180;11.400;2023-01-15T07:19:31;11.30;99.90
48007;DHT22;33771;48.180;11.400;2023-01-15T07:21:56;11.30;99.90
48007;DHT22;33771;48.180;11.400;2023-01-15T07:24:22;11.30;99.90
48007;DHT22;33771;48.180;11.400;2023-01-15T07:26:47;11.30;99.90
48007;DHT22;33771;48.180;11.400;2023-01-15T07:29:13;11.20;99.90
48007;DHT22;33771;48.180;11.400;2023-01-15T07:31:39;11.30;99.90
48007;DHT22;33771;48.180;11.400;2023-01-15T07:34:05;11.20;99.90
48007;DHT22;33771;48.180;11.400;2023-01-15T07:36:31;11.20;99.90
48007;DHT22;33771;48.180;11.400;2023-01-15T07:38:57;11.20;99.90
48007;DHT22;33771;48.180;11.400;2023-01-15T07:41:22;11.30;99.90
48007;DHT22;33771;48.180;11.400;2023-01-15T07:44:09;11.20;99.90
48007;DHT22;33771;48.180;11.400;2023-01-15T07:46:53;11.20;99.90
48007;DHT22;33771;48.180;11.400;2023-01-15T07:49:39;11.20;99.90
48007;DHT22;33771;48.180;11.400;2023-01-15T07:52:17;11.30;99.90
48007;DHT22;33771;48.180;11.400;2023-01-15T07:54:45;11.20;99.90
48007;DHT22;33771;48.180;11.400;2023-01-15T07:57:19;11.20;99.90
48007;DHT22;33771;48.180;11.400;2023-01-15T07:59:44;11.20;99.90
48007;DHT22;33771;48.180;11.400;2023-01-15T08:02:10;11.10;99.90
48007;DHT22;33771;48.180;11.400;2023-01-15T08:04:37;11.10;99.90
48007;DHT22;33771;48.180;11.400;2023-01-15T08:07:04;11.10;99.90
48007;DHT22;33771;48.180;11.400;2023-01-15T08:09:31;11.10;99.90
48007;DHT22;33771;48.180;11.400;2023-01-15T08:12:00;11.10;99.90
48007;DHT22;33771;48.180;11.400;2023-01-15T08:14:44;11.10;99.90
48007;DHT22;33771;48.180;11.400;2023-01-15T08:17:29;11.10;99.90
48007;DHT22;33771;48.180;11.400;2023-01-15T08:19:55;11.10;99.90
48007;DHT22;33771;48.180;11.400;2023-01-15T08:22:20;11.20;99.90
48007;DHT22;33771;48.180;11.400;2023-01-15T08:24:46;11.20;99.90
48007;DHT22;33771;48.180;11.400;2023-01-15T08:27:11;11.20;99.90
48007;DHT22;33771;48.180;11.400;2023-01-15T08:29:38;11.20;99.90
48007;DHT22;33771;48.180;11.400;2023-01-15T08:32:04;11.20;99.90
48007;DHT22;33771;48.180;11.400;2023-01-15T08:34:30;11.30;99.90
48007;DHT22;33771;48.180;11.400;2023-01-15T08:36:56;11.30;99.90
48007;DHT22;33771;48.180;11.400;2023-01-15T08:39:27;11.30;99.90
48007;DHT22;33771;48.180;11.400;2023-01-15T08:41:54;11.30;99.90
48007;DHT22;33771;48.180;11.400;2023-01-15T08:44:20;11.50;99.90
48007;DHT22;33771;48.180;11.400;2023-01-15T08:46:46;11.50;99.90
48007;DHT22;33771;48.180;11.400;2023-01-15T08:49:13;11.60;99.90
48007;DHT22;33771;48.180;11.400;2023-01-15T08:51:39;11.70;99.90
48007;DHT22;33771;48.180;11.400;2023-01-15T08:54:05;11.80;99.90
48007;DHT22;33771;48.180;11.400;2023-01-15T08:56:30;11.80;99.90
48007;DHT22;33771;48.180;11.400;2023-01-15T08:58:56;11.80;99.90
48007;DHT22;33771;48.180;11.400;2023-01-15T09:01:21;11.80;99.90
48007;DHT22;33771;48.180;11.400;2023-01-15T09:03:47;11.90;99.90
48007;DHT22;33771;48.180;11.400;2023-01-15T09:06:13;11.90;99.90
48007;DHT22;33771;48.180;11.400;2023-01-15T09:08:39;11.90;99.90
48007;DHT22;33771;48.180;11.400;2023-01-15T09:11:06;11.90;99.90
48007;DHT22;33771;48.180;11.400;2023-01-15T09:13:35;12.00;99.90
48007;DHT22;33771;48.180;11.400;2023-01-15T09:16:02;11.90;99.90
48007;DHT22;33771;48.180;11.400;2023-01-15T09:18:28;11.90;99.90
48007;DHT22;33771;48.180;11.400;2023-01-15T09:20:54;12.10;99.90
48007;DHT22;33771;48.180;11.400;2023-01-15T09:23:19;12.10;99.90
48007;DHT22;33771;48.180;11.400;2023-01-15T09:29:06;12.20;99.90
48007;DHT22;33771;48.180;11.400;2023-01-15T09:31:33;12.30;99.90
48007;DHT22;33771;48.180;11.400;2023-01-15T09:33:59;12.30;99.90
48007;DHT22;33771;48.180;11.400;2023-01-15T09:36:31;12.40;99.90
48007;DHT22;33771;48.180;11.400;2023-01-15T09:38:58;12.50;99.90
48007;DHT22;33771;48.180;11.400;2023-01-15T09:41:28;12.60;99.90
48007;DHT22;33771;48.180;11.400;2023-01-15T09:45:06;12.70;99.90
48007;DHT22;33771;48.180;11.400;2023-01-15T09:47:25;12.80;99.90
48007;DHT22;33771;48.180;11.400;2023-01-15T09:50:17;13.00;99.90
48007;DHT22;33771;48.180;11.400;2023-01-15T09:55:37;13.10;99.90
48007;DHT22;33771;48.180;11.400;2023-01-15T09:58:05;13.10;99.90
48007;DHT22;33771;48.180;11.400;2023-01-15T10:00:39;12.70;99.90
48007;DHT22;33771;48.180;11.400;2023-01-15T10:08:46;10.30;99.90
48007;DHT22;33771;48.180;11.400;2023-01-15T10:14:05;9.10;99.90
48007;DHT22;33771;48.180;11.400;2023-01-15T10:16:32;8.70;99.90
48007;DHT22;33771;48.180;11.400;2023-01-15T10:19:00;8.30;99.90
48007;DHT22;33771;48.180;11.400;2023-01-15T10:24:30;7.90;99.90
48007;DHT22;33771;48.180;11.400;2023-01-15T10:27:21;7.70;99.90
48007;DHT22;33771;48.180;11.400;2023-01-15T10:32:46;7.50;99.90
48007;DHT22;33771;48.180;11.400;2023-01-15T10:35:29;7.30;99.90
48007;DHT22;33771;48.180;11.400;2023-01-15T10:38:15;7.20;99.90
48007;DHT22;33771;48.180;11.400;2023-01-15T10:46:26;6.80;99.90
48007;DHT22;33771;48.180;11.400;2023-01-15T10:49:12;6.70;99.90
48007;DHT22;33771;48.180;11.400;2023-01-15T10:51:45;6.70;99.90
48007;DHT22;33771;48.180;11.400;2023-01-15T10:54:35;6.60;99.90
48007;DHT22;33771;48.180;11.400;2023-01-15T10:57:23;6.60;99.90
48007;DHT22;33771;48.180;11.400;2023-01-15T11:00:00;6.60;99.90
48007;DHT22;33771;48.180;11.400;2023-01-15T11:02:44;6.60;99.90
48007;DHT22;33771;48.180;11.400;2023-01-15T11:05:15;6.60;99.90
48007;DHT22;33771;48.180;11.400;2023-01-15T11:07:44;6.50;99.90
48007;DHT22;33771;48.180;11.400;2023-01-15T11:10:13;6.50;99.90
48007;DHT22;33771;48.180;11.400;2023-01-15T11:12:53;6.40;99.90
48007;DHT22;33771;48.180;11.400;2023-01-15T11:15:38;6.40;99.90
48007;DHT22;33771;48.180;11.400;2023-01-15T11:18:30;6.40;99.90
48007;DHT22;33771;48.180;11.400;2023-01-15T11:21:19;6.40;99.90
48007;DHT22;33771;48.180;11.400;2023-01-15T11:23:45;6.30;99.90
48007;DHT22;33771;48.180;11.400;2023-01-15T11:26:26;6.30;99.90
48007;DHT22;33771;48.180;11.400;2023-01-15T11:28:53;6.30;99.90
48007;DHT22;33771;48.180;11.400;2023-01-15T11:31:19;6.30;99.90
48007;DHT22;33771;48.180;11.400;2023-01-15T11:34:02;6.20;99.90
48007;DHT22;33771;48.180;11.400;2023-01-15T11:36:30;6.10;99.90
48007;DHT22;33771;48.180;11.400;2023-01-15T11:38:56;6.10;99.90
48007;DHT22;33771;48.180;11.400;2023-01-15T11:44:11;6.10;99.90
48007;DHT22;33771;48.180;11.400;2023-01-15T11:47:11;6.00;99.90
48007;DHT22;33771;48.180;11.400;2023-01-15T11:49:55;5.90;99.90
48007;DHT22;33771;48.180;11.400;2023-01-15T11:52:47;5.90;99.90
48007;DHT22;33771;48.180;11.400;2023-01-15T11:55:21;5.80;99.90
48007;DHT22;33771;48.180;11.400;2023-01-15T11:57:51;5.60;99.90
48007;DHT22;33771;48.180;11.400;2023-01-15T12:00:29;5.60;99.90
48007;DHT22;33771;48.180;11.400;2023-01-15T12:03:00;5.50;99.90
48007;DHT22;33771;48.180;11.400;2023-01-15T12:05:31;5.60;99.90
48007;DHT22;33771;48.180;11.400;2023-01-15T12:08:02;5.50;99.90
48007;DHT22;33771;48.180;11.400;2023-01-15T12:10:38;5.50;99.90
48007;DHT22;33771;48.180;11.400;2023-01-15T12:16:38;5.50;99.90
48007;DHT22;33771;48.180;11.400;2023-01-15T12:22:35;5.50;99.90
48007;DHT22;33771;48.180;11.400;2023-01-15T12:25:17;5.40;99.90
48007;DHT22;33771;48.180;11.400;2023-01-15T12:30:41;5.40;99.90
48007;DHT22;33771;48.180;11.400;2023-01-15T12:35:58;5.40;99.90
48007;DHT22;33771;48.180;11.400;2023-01-15T12:38:27;5.50;99.90
48007;DHT22;33771;48.180;11.400;2023-01-15T12:41:12;5.50;99.90
48007;DHT22;33771;48.180;11.400;2023-01-15T12:43:39;5.50;99.90
48007;DHT22;33771;48.180;11.400;2023-01-15T12:46:27;5.50;99.90
48007;DHT22;33771;48.180;11.400;2023-01-15T12:51:39;5.50;99.90
48007;DHT22;33771;48.180;11.400;2023-01-15T12:54:14;5.40;99.90
48007;DHT22;33771;48.180;11.400;2023-01-15T12:56:59;5.50;99.90
48007;DHT22;33771;48.180;11.400;2023-01-15T12:59:35;5.50;99.90
48007;DHT22;33771;48.180;11.400;2023-01-15T13:02:32;5.50;99.90
48007;DHT22;33771;48.180;11.400;2023-01-15T13:07:35;5.50;99.90
48007;DHT22;33771;48.180;11.400;2023-01-15T13:10:24;5.60;99.90
48007;DHT22;33771;48.180;11.400;2023-01-15T13:12:53;5.50;99.90
48007;DHT22;33771;48.180;11.400;2023-01-15T13:15:21;5.50;99.90
48007;DHT22;33771;48.180;11.400;2023-01-15T13:20:48;5.50;99.90
48007;DHT22;33771;48.180;11.400;2023-01-15T13:26:47;5.70;99.90
48007;DHT22;33771;48.180;11.400;2023-01-15T13:35:04;5.50;99.90
48007;DHT22;33771;48.180;11.400;2023-01-15T13:37:44;5.50;99.90
48007;DHT22;33771;48.180;11.400;2023-01-15T13:40:34;5.40;99.90
48007;DHT22;33771;48.180;11.400;2023-01-15T13:43:04;5.40;99.90
48007;DHT22;33771;48.180;11.400;2023-01-15T13:48:27;5.40;99.90
48007;DHT22;33771;48.180;11.400;2023-01-15T13:50:56;5.40;99.90
48007;DHT22;33771;48.180;11.400;2023-01-15T13:53:33;5.30;99.90
48007;DHT22;33771;48.180;11.400;2023-01-15T13:56:07;5.30;99.90
48007;DHT22;33771;48.180;11.400;2023-01-15T13:58:38;5.20;99.90
48007;DHT22;33771;48.180;11.400;2023-01-15T14:03:34;5.30;99.90
48007;DHT22;33771;48.180;11.400;2023-01-15T14:06:07;5.30;99.90
48007;DHT22;33771;48.180;11.400;2023-01-15T14:08:44;5.30;99.90
48007;DHT22;33771;48.180;11.400;2023-01-15T14:14:35;5.30;99.90
48007;DHT22;33771;48.180;11.400;2023-01-15T14:25:53;5.10;99.90
48007;DHT22;33771;48.180;11.400;2023-01-15T14:34:23;5.10;99.90
48007;DHT22;33771;48.180;11.400;2023-01-15T14:37:04;5.00;99.90
48007;DHT22;33771;48.180;11.400;2023-01-15T14:39:50;5.00;99.90
48007;DHT22;33771;48.180;11.400;2023-01-15T14:48:00;4.70;99.90
48007;DHT22;33771;48.180;11.400;2023-01-15T14:56:01;4.40;99.90
48007;DHT22;33771;48.180;11.400;2023-01-15T15:07:05;4.20;99.90
48007;DHT22;33771;48.180;11.400;2023-01-15T15:10:03;4.10;99.90
48007;DHT22;33771;48.180;11.400;2023-01-15T15:12:36;4.00;99.90
48007;DHT22;33771;48.180;11.400;2023-01-15T15:15:11;3.90;99.90
48007;DHT22;33771;48.180;11.400;2023-01-15T15:20:50;3.80;99.90
48007;DHT22;33771;48.180;11.400;2023-01-15T15:23:43;3.70;99.90
48007;DHT22;33771;48.180;11.400;2023-01-15T15:26:28;3.70;99.90
48007;DHT22;33771;48.180;11.400;2023-01-15T15:29:11;3.60;99.90
48007;DHT22;33771;48.180;11.400;2023-01-15T15:31:44;3.60;99.90
48007;DHT22;33771;48.180;11.400;2023-01-15T15:34:32;3.50;99.90
48007;DHT22;33771;48.180;11.400;2023-01-15T15:37:02;3.50;99.90
48007;DHT22;33771;48.180;11.400;2023-01-15T15:39:41;3.50;99.90
48007;DHT22;33771;48.180;11.400;2023-01-15T15:42:26;3.50;99.90
48007;DHT22;33771;48.180;11.400;2023-01-15T15:45:21;3.50;99.90
48007;DHT22;33771;48.180;11.400;2023-01-15T15:48:21;3.50;99.90
48007;DHT22;33771;48.180;11.400;2023-01-15T15:51:27;3.50;99.90
48007;DHT22;33771;48.180;11.400;2023-01-15T15:54:19;3.60;99.90
48007;DHT22;33771;48.180;11.400;2023-01-15T15:57:00;3.50;99.90
48007;DHT22;33771;48.180;11.400;2023-01-15T15:59:30;3.50;99.90
48007;DHT22;33771;48.180;11.400;2023-01-15T16:01:59;3.40;99.90
48007;DHT22;33771;48.180;11.400;2023-01-15T16:04:32;3.40;99.90
48007;DHT22;33771;48.180;11.400;2023-01-15T16:06:57;3.40;99.90
48007;DHT22;33771;48.180;11.400;2023-01-15T16:09:23;3.30;99.90
48007;DHT22;33771;48.180;11.400;2023-01-15T16:11:51;3.40;99.90
48007;DHT22;33771;48.180;11.400;2023-01-15T16:14:18;3.40;99.90
48007;DHT22;33771;48.180;11.400;2023-01-15T16:16:45;3.40;99.90
48007;DHT22;33771;48.180;11.400;2023-01-15T16:19:17;3.50;99.90
48007;DHT22;33771;48.180;11.400;2023-01-15T16:21:44;3.50;99.90
48007;DHT22;33771;48.180;11.400;2023-01-15T16:24:25;3.50;99.90
48007;DHT22;33771;48.180;11.400;2023-01-15T16:27:01;3.50;99.90
48007;DHT22;33771;48.180;11.400;2023-01-15T16:29:31;3.60;99.90
48007;DHT22;33771;48.180;11.400;2023-01-15T16:31:57;3.70;99.90
48007;DHT22;33771;48.180;11.400;2023-01-15T16:34:32;3.70;99.90
48007;DHT22;33771;48.180;11.400;2023-01-15T16:36:59;3.70;99.90
48007;DHT22;33771;48.180;11.400;2023-01-15T16:39:42;3.70;99.90
48007;DHT22;33771;48.180;11.400;2023-01-15T16:42:35;3.70;99.90
48007;DHT22;33771;48.180;11.400;2023-01-15T16:45:04;3.70;99.90
48007;DHT22;33771;48.180;11.400;2023-01-15T16:47:33;3.80;99.90
48007;DHT22;33771;48.180;11.400;2023-01-15T16:50:25;3.80;99.90
48007;DHT22;33771;48.180;11.400;2023-01-15T16:52:52;3.80;99.90
48007;DHT22;33771;48.180;11.400;2023-01-15T16:55:35;3.80;99.90
48007;DHT22;33771;48.180;11.400;2023-01-15T17:00:40;3.80;99.90
48007;DHT22;33771;48.180;11.400;2023-01-15T17:03:18;3.70;99.90
48007;DHT22;33771;48.180;11.400;2023-01-15T17:05:55;3.80;99.90
48007;DHT22;33771;48.180;11.400;2023-01-15T17:08:34;3.80;99.90
48007;DHT22;33771;48.180;11.400;2023-01-15T17:11:06;3.70;99.90
48007;DHT22;33771;48.180;11.400;2023-01-15T17:13:39;3.80;99.90
48007;DHT22;33771;48.180;11.400;2023-01-15T17:16:19;3.70;99.90
48007;DHT22;33771;48.180;11.400;2023-01-15T17:18:46;3.80;99.90
48007;DHT22;33771;48.180;11.400;2023-01-15T17:21:20;3.70;99.90
48007;DHT22;33771;48.180;11.400;2023-01-15T17:23:47;3.70;99.90
48007;DHT22;33771;48.180;11.400;2023-01-15T17:26:17;3.80;99.90
48007;DHT22;33771;48.180;11.400;2023-01-15T17:28:43;3.70;99.90
48007;DHT22;33771;48.180;11.400;2023-01-15T17:31:32;3.70;99.90
48007;DHT22;33771;48.180;11.400;2023-01-15T17:33:59;3.60;99.90
48007;DHT22;33771;48.180;11.400;2023-01-15T17:36:25;3.60;99.90
48007;DHT22;33771;48.180;11.400;2023-01-15T17:38:52;3.60;99.90
48007;DHT22;33771;48.180;11.400;2023-01-15T17:41:19;3.60;99.90
48007;DHT22;33771;48.180;11.400;2023-01-15T17:43:46;3.60;99.90
48007;DHT22;33771;48.180;11.400;2023-01-15T17:46:11;3.50;99.90
48007;DHT22;33771;48.180;11.400;2023-01-15T17:48:37;3.50;99.90
48007;DHT22;33771;48.180;11.400;2023-01-15T17:51:11;3.50;99.90
48007;DHT22;33771;48.180;11.400;2023-01-15T17:53:37;3.50;99.90
48007;DHT22;33771;48.180;11.400;2023-01-15T17:56:03;3.50;99.90
48007;DHT22;33771;48.180;11.400;2023-01-15T17:58:47;3.50;99.90
48007;DHT22;33771;48.180;11.400;2023-01-15T18:01:36;3.40;99.90
48007;DHT22;33771;48.180;11.400;2023-01-15T18:04:23;3.40;99.90
48007;DHT22;33771;48.180;11.400;2023-01-15T18:07:08;3.40;99.90